createdAt,value
2022-11-24T00:10:56.552Z,51.40
2022-11-24T00:26:00.027Z,50.90
2022-11-24T00:41:01.435Z,51.90
2022-11-24T00:56:03.300Z,51.30
2022-11-24T01:11:03.581Z,49.70
2022-11-24T01:26:05.890Z,49.80
2022-11-24T01:41:08.018Z,43.10
2022-11-24T01:56:09.919Z,46.30
2022-11-24T02:11:12.409Z,47.30
2022-11-24T02:26:13.814Z,49.20
2022-11-24T02:41:16.321Z,44.60
2022-11-24T02:56:18.436Z,46.50
2022-11-24T03:11:20.837Z,42.60
2022-11-24T03:26:21.990Z,44.20
2022-11-24T03:41:22.940Z,40.30
2022-11-24T03:56:23.793Z,41.50
2022-11-24T04:11:25.454Z,42.90
2022-11-24T04:26:27.617Z,40.50
2022-11-24T04:41:29.205Z,41.30
2022-11-24T04:56:30.585Z,42.20
2022-11-24T05:11:30.635Z,36.50
2022-11-24T05:26:31.954Z,39.80
2022-11-24T05:41:32.365Z,38.00
2022-11-24T05:56:33.672Z,38.10
2022-11-24T06:11:35.036Z,39.10
2022-11-24T06:26:35.762Z,34.60
2022-11-24T06:41:38.228Z,37.70
2022-11-24T06:56:41.240Z,34.70
2022-11-24T07:11:43.135Z,32.30
2022-11-24T07:26:45.375Z,36.80
2022-11-24T07:41:47.390Z,34.90
2022-11-24T07:56:48.890Z,36.50
2022-11-24T08:11:50.917Z,31.50
2022-11-24T08:26:52.437Z,36.70
2022-11-24T08:41:54.824Z,35.80
2022-11-24T08:56:57.235Z,36.30
2022-11-24T09:11:59.073Z,38.50
2022-11-24T09:27:00.416Z,33.30
2022-11-24T09:42:01.745Z,34.10
2022-11-24T09:57:04.120Z,32.90
2022-11-24T10:12:04.995Z,33.00
2022-11-24T10:27:05.746Z,30.50
2022-11-24T10:42:07.538Z,29.50
2022-11-24T10:57:08.057Z,27.50
2022-11-24T11:12:28.064Z,26.20
2022-11-24T11:27:15.616Z,27.10
2022-11-24T11:42:37.921Z,26.90
2022-11-24T11:57:23.749Z,27.10
2022-11-24T12:12:26.048Z,26.40
2022-11-24T12:27:27.433Z,26.40
2022-11-24T12:42:31.250Z,24.90
2022-11-24T12:57:33.085Z,25.50
2022-11-24T13:12:34.229Z,26.80
2022-11-24T13:27:34.578Z,25.50
2022-11-24T13:42:43.648Z,27.20
2022-11-24T13:57:42.412Z,25.30
2022-11-24T14:12:44.275Z,24.10
2022-11-24T14:27:48.213Z,25.00
2022-11-24T14:42:50.549Z,27.20
2022-11-24T14:57:51.134Z,24.80
2022-11-24T15:12:51.370Z,27.10
2022-11-24T15:27:53.407Z,26.30
2022-11-24T15:42:54.735Z,28.10
2022-11-24T15:57:57.533Z,27.90
2022-11-24T16:13:00.489Z,27.60
2022-11-24T16:28:03.496Z,45.20
2022-11-24T16:43:04.807Z,33.60
2022-11-24T16:58:05.879Z,32.00
2022-11-24T17:13:07.919Z,31.00
2022-11-24T17:28:09.494Z,30.30
2022-11-24T17:43:11.588Z,27.40
2022-11-24T17:58:13.057Z,29.60
2022-11-24T18:13:34.128Z,28.80
2022-11-24T18:28:21.742Z,29.20
2022-11-24T18:43:23.116Z,28.20
2022-11-24T18:58:25.633Z,27.90
2022-11-24T19:13:26.732Z,25.80
2022-11-24T19:28:29.033Z,25.50
2022-11-24T19:43:29.220Z,24.30
2022-11-24T19:58:30.529Z,23.90
2022-11-24T20:13:30.710Z,27.80
2022-11-24T20:28:31.307Z,25.80
2022-11-24T20:43:32.696Z,29.20
2022-11-24T20:58:36.189Z,26.10
2022-11-24T21:13:36.914Z,32.50
2022-11-24T21:28:37.936Z,26.80
2022-11-24T21:43:39.800Z,32.50
2022-11-24T21:58:40.940Z,32.00
2022-11-24T22:13:43.095Z,32.00
2022-11-24T22:28:45.452Z,31.80
2022-11-24T22:43:46.618Z,31.10
2022-11-24T22:58:49.020Z,32.40
2022-11-24T23:13:49.618Z,30.90
2022-11-24T23:28:51.529Z,30.90
2022-11-24T23:43:52.190Z,34.90
2022-11-24T23:58:54.072Z,34.70
